Time;durP1;ratioP1;P1;durP2;ratioP2;P2;SDS_P1;SDS_P2;PMS_P1;PMS_P2;Temp;Humidity;BMP_temperature;BMP_pressure;BME280_temperature;BME280_humidity;BME280_pressure;Samples;Min_cycle;Max_cycle;Signal;HPM_P1;HPM_P2
2022/04/19 00:02:01;;;;;;;;;;;6.90;99.90;;;;;;5115784;28;20439;-46
2022/04/19 00:04:27;;;;;;;;;;;6.90;99.90;;;;;;5097690;28;20002;-48
2022/04/19 00:06:52;;;;;;;;;;;6.90;99.90;;;;;;5116084;28;20327;-45
2022/04/19 00:09:18;;;;;;;;;;;6.90;99.90;;;;;;5116032;28;19908;-46
2022/04/19 00:11:43;;;;;;;;;;;6.80;99.90;;;;;;5097634;28;19915;-47
2022/04/19 00:14:10;;;;;;;;;;;6.80;99.90;;;;;;5115622;28;19973;-45
2022/04/19 00:16:36;;;;;;;;;;;6.80;99.90;;;;;;5116032;28;19972;-44
2022/04/19 00:19:02;;;;;;;;;;;6.80;99.90;;;;;;5115597;28;19979;-45
2022/04/19 00:21:27;;;;;;;;;;;6.70;99.90;;;;;;5115885;28;19908;-44
2022/04/19 00:23:53;;;;;;;;;;;6.70;99.90;;;;;;5115971;28;19930;-45
2022/04/19 00:26:21;;;;;;;;;;;6.70;99.90;;;;;;5115420;28;19914;-45
2022/04/19 00:28:46;;;;;;;;;;;6.70;99.90;;;;;;5115354;28;19994;-45
2022/04/19 00:31:12;;;;;;;;;;;6.70;99.90;;;;;;5115373;28;19959;-45
2022/04/19 00:33:44;;;;;;;;;;;6.70;99.90;;;;;;5115159;28;20345;-46
2022/04/19 00:36:10;;;;;;;;;;;6.60;99.90;;;;;;5115214;28;20403;-45
2022/04/19 00:38:35;;;;;;;;;;;6.60;99.90;;;;;;5115137;28;19954;-45
2022/04/19 00:41:01;;;;;;;;;;;6.60;99.90;;;;;;5115148;28;19950;-45
2022/04/19 00:43:26;;;;;;;;;;;6.50;99.90;;;;;;5115271;28;19999;-45
2022/04/19 00:45:52;;;;;;;;;;;6.50;99.90;;;;;;5115283;28;20003;-47
2022/04/19 00:48:21;;;;;;;;;;;6.40;99.90;;;;;;5096941;28;19931;-46
2022/04/19 00:50:50;;;;;;;;;;;6.40;99.90;;;;;;5115249;28;19907;-47
2022/04/19 00:53:17;;;;;;;;;;;6.40;99.90;;;;;;5114827;28;19931;-45
2022/04/19 00:55:42;;;;;;;;;;;6.40;99.90;;;;;;5115152;28;19908;-45
2022/04/19 00:58:08;;;;;;;;;;;6.40;99.90;;;;;;5097253;28;19907;-45
2022/04/19 01:00:34;;;;;;;;;;;6.40;99.90;;;;;;5114876;28;20286;-44
2022/04/19 01:02:59;;;;;;;;;;;6.40;99.90;;;;;;5114731;28;19907;-44
2022/04/19 01:05:25;;;;;;;;;;;6.40;99.90;;;;;;5114910;28;19919;-49
2022/04/19 01:07:50;;;;;;;;;;;6.40;99.90;;;;;;5114621;28;20460;-44
2022/04/19 01:10:16;;;;;;;;;;;6.40;99.90;;;;;;5114483;28;19908;-44
2022/04/19 01:15:25;;;;;;;;;;;6.40;99.90;;;;;;5114556;28;19968;-45
2022/04/19 01:17:52;;;;;;;;;;;6.40;99.90;;;;;;5114707;28;19908;-50
2022/04/19 01:20:18;;;;;;;;;;;6.40;99.90;;;;;;5114640;28;19908;-45
2022/04/19 01:22:47;;;;;;;;;;;6.40;99.90;;;;;;5096360;28;19907;-46
2022/04/19 01:25:13;;;;;;;;;;;6.30;99.90;;;;;;5096441;28;19908;-45
2022/04/19 01:27:39;;;;;;;;;;;6.40;99.90;;;;;;5114594;28;20401;-46
2022/04/19 01:30:05;;;;;;;;;;;6.30;99.90;;;;;;5114449;28;19912;-46
2022/04/19 01:32:32;;;;;;;;;;;6.30;99.90;;;;;;5114533;28;19919;-44
2022/04/19 01:35:17;;;;;;;;;;;6.30;99.90;;;;;;5114165;28;19957;-46
2022/04/19 01:37:46;;;;;;;;;;;6.30;99.90;;;;;;5114511;28;19931;-48
2022/04/19 01:40:18;;;;;;;;;;;6.20;99.90;;;;;;5113803;28;20385;-45
2022/04/19 01:42:47;;;;;;;;;;;6.20;99.90;;;;;;5114146;28;20354;-49
2022/04/19 01:45:13;;;;;;;;;;;6.20;99.90;;;;;;5114082;28;19908;-44
2022/04/19 01:47:39;;;;;;;;;;;6.20;99.90;;;;;;5114147;28;20042;-47
2022/04/19 01:50:08;;;;;;;;;;;6.20;99.90;;;;;;5096018;28;20349;-46
2022/04/19 01:52:35;;;;;;;;;;;6.20;99.90;;;;;;5114049;28;20018;-45
2022/04/19 01:55:00;;;;;;;;;;;6.20;99.90;;;;;;5114277;28;19908;-46
2022/04/19 01:57:26;;;;;;;;;;;6.20;99.90;;;;;;5114036;28;19960;-45
2022/04/19 01:59:53;;;;;;;;;;;6.20;99.90;;;;;;5113949;28;20311;-45
2022/04/19 02:02:18;;;;;;;;;;;6.10;99.90;;;;;;5114119;28;19908;-45
2022/04/19 02:04:44;;;;;;;;;;;6.10;99.90;;;;;;5113873;28;20274;-48
2022/04/19 02:07:09;;;;;;;;;;;6.10;99.90;;;;;;5113865;28;19930;-46
2022/04/19 02:09:35;;;;;;;;;;;6.10;99.90;;;;;;5113840;28;20270;-45
2022/04/19 02:12:01;;;;;;;;;;;6.10;99.90;;;;;;5114047;28;19908;-47
2022/04/19 02:14:26;;;;;;;;;;;6.10;99.90;;;;;;5095773;28;20338;-46
2022/04/19 02:16:53;;;;;;;;;;;6.00;99.90;;;;;;5114041;28;19908;-44
2022/04/19 02:19:18;;;;;;;;;;;6.00;99.90;;;;;;5113683;28;19908;-45
2022/04/19 02:21:45;;;;;;;;;;;6.00;99.90;;;;;;5114071;28;20270;-44
2022/04/19 02:24:10;;;;;;;;;;;6.00;99.90;;;;;;5114028;28;19914;-46
2022/04/19 02:26:36;;;;;;;;;;;6.00;99.90;;;;;;5114337;28;19965;-45
2022/04/19 02:29:02;;;;;;;;;;;6.00;99.90;;;;;;5113733;28;20025;-45
2022/04/19 02:31:28;;;;;;;;;;;6.00;99.90;;;;;;5113584;28;19927;-50
2022/04/19 02:33:54;;;;;;;;;;;6.00;99.90;;;;;;5113778;28;20266;-44
2022/04/19 02:36:21;;;;;;;;;;;5.90;99.90;;;;;;5113874;28;19915;-47
2022/04/19 02:38:46;;;;;;;;;;;5.90;99.90;;;;;;5113744;28;20243;-46
2022/04/19 02:41:12;;;;;;;;;;;5.90;99.90;;;;;;5113490;28;20370;-46
2022/04/19 02:43:38;;;;;;;;;;;5.90;99.90;;;;;;5113883;28;19911;-46
2022/04/19 02:46:04;;;;;;;;;;;5.90;99.90;;;;;;5114124;28;19908;-49
2022/04/19 02:48:30;;;;;;;;;;;5.90;99.90;;;;;;5113814;28;19958;-45
2022/04/19 02:50:56;;;;;;;;;;;5.90;99.90;;;;;;5113789;28;20005;-46
2022/04/19 02:53:21;;;;;;;;;;;5.90;99.90;;;;;;5117414;28;19986;-48
2022/04/19 02:55:48;;;;;;;;;;;6.00;99.90;;;;;;5117188;28;19908;-45
2022/04/19 02:58:13;;;;;;;;;;;6.00;99.90;;;;;;5117034;28;20200;-45
2022/04/19 03:00:39;;;;;;;;;;;6.10;99.90;;;;;;5117322;28;19915;-45
2022/04/19 03:03:05;;;;;;;;;;;6.20;99.90;;;;;;5117346;28;19916;-46
2022/04/19 03:05:33;;;;;;;;;;;6.20;99.90;;;;;;5117271;28;19907;-46
2022/04/19 03:07:59;;;;;;;;;;;6.20;99.90;;;;;;5116816;28;19915;-45
2022/04/19 03:10:24;;;;;;;;;;;6.20;99.90;;;;;;5116826;28;20292;-43
2022/04/19 03:12:53;;;;;;;;;;;6.20;99.90;;;;;;5116906;28;19915;-51
2022/04/19 03:15:20;;;;;;;;;;;6.20;99.90;;;;;;5116613;28;19996;-43
2022/04/19 03:17:45;;;;;;;;;;;6.30;99.90;;;;;;5116660;28;19923;-46
2022/04/19 03:20:11;;;;;;;;;;;6.30;99.90;;;;;;5116994;28;19907;-44
2022/04/19 03:28:05;;;;;;;;;;;6.20;99.90;;;;;;5116611;28;20371;-44
2022/04/19 03:30:31;;;;;;;;;;;6.30;99.90;;;;;;5116431;28;19912;-46
2022/04/19 03:32:56;;;;;;;;;;;6.30;99.90;;;;;;5116260;28;20011;-45
2022/04/19 03:35:22;;;;;;;;;;;6.20;99.90;;;;;;5116302;28;19907;-47
2022/04/19 03:37:48;;;;;;;;;;;6.20;99.90;;;;;;5116709;28;19915;-45
2022/04/19 03:40:14;;;;;;;;;;;6.20;99.90;;;;;;5116899;28;19912;-45
2022/04/19 03:42:41;;;;;;;;;;;6.20;99.90;;;;;;5116588;28;20385;-45
2022/04/19 03:45:10;;;;;;;;;;;6.20;99.90;;;;;;5116246;28;20328;-45
2022/04/19 03:47:36;;;;;;;;;;;6.10;99.90;;;;;;5116397;28;19912;-46
2022/04/19 03:50:01;;;;;;;;;;;6.20;99.90;;;;;;5116357;28;19969;-45
2022/04/19 03:52:27;;;;;;;;;;;6.10;99.90;;;;;;5116044;28;19955;-48
2022/04/19 03:54:52;;;;;;;;;;;6.20;99.90;;;;;;5116002;28;19908;-46
2022/04/19 03:57:18;;;;;;;;;;;6.10;99.90;;;;;;5115921;28;19907;-48
2022/04/19 03:59:44;;;;;;;;;;;6.10;99.90;;;;;;5116562;28;19908;-45
2022/04/19 04:02:10;;;;;;;;;;;6.10;99.90;;;;;;5115756;28;20239;-45
2022/04/19 04:04:36;;;;;;;;;;;6.10;99.90;;;;;;5115705;28;19936;-45
2022/04/19 04:07:02;;;;;;;;;;;6.10;99.90;;;;;;5115741;28;19908;-45
2022/04/19 04:09:35;;;;;;;;;;;6.20;99.90;;;;;;5115680;28;19908;-46
2022/04/19 04:12:12;;;;;;;;;;;6.20;99.90;;;;;;5115704;28;19908;-46
2022/04/19 04:14:38;;;;;;;;;;;6.20;99.90;;;;;;5115586;28;20286;-48
2022/04/19 04:17:03;;;;;;;;;;;6.10;99.90;;;;;;5115369;28;19908;-47
2022/04/19 04:19:29;;;;;;;;;;;6.10;99.90;;;;;;5115499;28;20304;-45
2022/04/19 04:21:55;;;;;;;;;;;6.10;99.90;;;;;;5115360;28;19937;-47
2022/04/19 04:24:20;;;;;;;;;;;6.10;99.90;;;;;;5097183;28;19938;-46
2022/04/19 04:26:46;;;;;;;;;;;6.00;99.90;;;;;;5097238;28;19908;-46
2022/04/19 04:29:11;;;;;;;;;;;6.00;99.90;;;;;;5115161;28;19908;-48
2022/04/19 04:31:38;;;;;;;;;;;6.00;99.90;;;;;;5115598;28;20338;-48
2022/04/19 04:34:04;;;;;;;;;;;6.00;99.90;;;;;;5115244;28;20010;-46
2022/04/19 04:36:29;;;;;;;;;;;6.00;99.90;;;;;;5115226;28;19935;-45
2022/04/19 04:38:55;;;;;;;;;;;6.00;99.90;;;;;;5115017;28;19912;-45
2022/04/19 04:41:20;;;;;;;;;;;6.00;99.90;;;;;;5114906;28;19935;-45
2022/04/19 04:43:46;;;;;;;;;;;6.00;99.90;;;;;;5115013;28;19918;-48
2022/04/19 04:51:40;;;;;;;;;;;6.10;99.90;;;;;;5114812;28;19914;-44
2022/04/19 04:54:05;;;;;;;;;;;6.20;99.90;;;;;;5114788;28;19919;-46
2022/04/19 04:56:31;;;;;;;;;;;6.30;99.90;;;;;;5114617;28;19907;-46
2022/04/19 04:58:57;;;;;;;;;;;6.50;99.90;;;;;;5096353;28;20017;-46
2022/04/19 05:01:22;;;;;;;;;;;6.50;99.90;;;;;;5114732;28;20343;-48
2022/04/19 05:03:48;;;;;;;;;;;6.60;99.90;;;;;;5114358;28;20231;-45
2022/04/19 05:06:13;;;;;;;;;;;6.60;99.90;;;;;;5114239;28;19918;-45
2022/04/19 05:08:39;;;;;;;;;;;6.60;99.90;;;;;;5114641;28;19908;-46
2022/04/19 05:11:04;;;;;;;;;;;6.70;99.90;;;;;;5114159;28;20421;-46
2022/04/19 05:13:30;;;;;;;;;;;6.60;99.90;;;;;;5114163;28;19956;-47
2022/04/19 05:15:58;;;;;;;;;;;6.70;99.90;;;;;;5113538;28;20316;-45
2022/04/19 05:18:24;;;;;;;;;;;6.80;99.90;;;;;;5096043;28;19965;-46
2022/04/19 05:20:50;;;;;;;;;;;7.00;99.90;;;;;;5114667;28;19915;-44
2022/04/19 05:23:15;;;;;;;;;;;7.10;99.90;;;;;;5114298;28;20265;-47
2022/04/19 05:25:41;;;;;;;;;;;7.20;99.90;;;;;;5113791;28;19908;-47
2022/04/19 05:28:06;;;;;;;;;;;7.30;99.90;;;;;;5114101;28;19914;-46
2022/04/19 05:30:32;;;;;;;;;;;7.30;99.90;;;;;;5113954;28;19915;-47
2022/04/19 05:32:58;;;;;;;;;;;7.40;99.90;;;;;;5114271;28;19962;-45
2022/04/19 05:35:24;;;;;;;;;;;7.50;99.90;;;;;;5129613;27;20283;-47
2022/04/19 05:37:50;;;;;;;;;;;7.50;99.90;;;;;;5095582;28;20384;-46
2022/04/19 05:40:15;;;;;;;;;;;7.50;99.90;;;;;;5113637;28;20251;-46
2022/04/19 05:42:41;;;;;;;;;;;7.60;99.90;;;;;;5113760;28;19908;-45
2022/04/19 05:45:07;;;;;;;;;;;7.70;99.90;;;;;;5113435;28;20259;-47
2022/04/19 05:47:33;;;;;;;;;;;7.80;99.90;;;;;;5113701;28;19908;-49
2022/04/19 05:49:58;;;;;;;;;;;7.90;99.90;;;;;;5113952;28;19976;-48
2022/04/19 05:52:24;;;;;;;;;;;7.90;99.90;;;;;;5095591;28;20255;-52
2022/04/19 05:54:49;;;;;;;;;;;8.10;99.90;;;;;;5113534;28;19973;-45
2022/04/19 05:57:15;;;;;;;;;;;7.90;99.90;;;;;;5113899;28;19912;-49
2022/04/19 05:59:40;;;;;;;;;;;8.00;99.90;;;;;;5114147;28;19915;-48
2022/04/19 06:04:53;;;;;;;;;;;8.10;99.90;;;;;;5113560;28;19966;-45
2022/04/19 06:07:22;;;;;;;;;;;8.40;99.90;;;;;;5113548;28;19908;-45
2022/04/19 06:09:48;;;;;;;;;;;8.40;99.90;;;;;;5095603;28;20265;-46
2022/04/19 06:12:13;;;;;;;;;;;8.50;99.90;;;;;;5113164;28;19908;-51
2022/04/19 06:14:39;;;;;;;;;;;8.50;99.90;;;;;;5113437;28;19908;-51
2022/04/19 06:17:05;;;;;;;;;;;8.50;99.90;;;;;;5113218;28;19908;-49
2022/04/19 06:19:31;;;;;;;;;;;8.60;99.90;;;;;;5095152;28;19908;-46
2022/04/19 06:21:56;;;;;;;;;;;8.50;99.90;;;;;;5094881;28;19908;-47
2022/04/19 06:24:22;;;;;;;;;;;8.60;99.90;;;;;;5113247;28;20006;-46
2022/04/19 06:26:48;;;;;;;;;;;8.60;99.90;;;;;;5116056;28;19915;-46
2022/04/19 06:29:14;;;;;;;;;;;8.50;99.90;;;;;;5116541;28;20316;-44
2022/04/19 06:31:40;;;;;;;;;;;8.40;99.90;;;;;;5116697;28;19927;-49
2022/04/19 06:34:07;;;;;;;;;;;8.40;99.90;;;;;;5117137;28;19924;-46
2022/04/19 06:36:32;;;;;;;;;;;8.40;99.90;;;;;;5116735;28;19912;-45
2022/04/19 06:38:58;;;;;;;;;;;8.70;99.90;;;;;;5116733;28;19998;-45
2022/04/19 06:41:23;;;;;;;;;;;8.80;99.90;;;;;;5117230;28;19914;-48
2022/04/19 06:43:49;;;;;;;;;;;8.90;99.90;;;;;;5117397;28;19908;-45
2022/04/19 06:46:15;;;;;;;;;;;9.00;99.90;;;;;;5116697;28;19908;-47
2022/04/19 06:48:41;;;;;;;;;;;9.10;99.90;;;;;;5116684;28;19947;-46
2022/04/19 06:51:09;;;;;;;;;;;9.20;99.90;;;;;;5116721;28;19915;-45
2022/04/19 06:53:35;;;;;;;;;;;9.40;99.90;;;;;;5116623;28;19945;-46
2022/04/19 06:56:01;;;;;;;;;;;9.50;99.90;;;;;;5116486;28;19907;-46
2022/04/19 06:58:26;;;;;;;;;;;9.50;99.90;;;;;;5098418;28;19915;-49
2022/04/19 07:00:52;;;;;;;;;;;9.40;99.90;;;;;;5098501;28;20354;-47
2022/04/19 07:03:18;;;;;;;;;;;9.50;99.90;;;;;;5116547;28;20262;-49
2022/04/19 07:05:43;;;;;;;;;;;9.60;99.90;;;;;;5098171;28;19908;-46
2022/04/19 07:08:09;;;;;;;;;;;9.60;99.90;;;;;;5116234;28;20461;-47
2022/04/19 07:10:35;;;;;;;;;;;9.70;99.90;;;;;;5098239;28;19911;-48
2022/04/19 07:13:00;;;;;;;;;;;9.50;99.90;;;;;;5116493;28;19986;-46
2022/04/19 07:15:26;;;;;;;;;;;9.50;99.90;;;;;;5116110;28;19943;-45
2022/04/19 07:17:51;;;;;;;;;;;9.50;99.90;;;;;;5116050;28;19954;-47
2022/04/19 07:28:34;;;;;;;;;;;9.40;99.90;;;;;;5116256;28;19915;-46
2022/04/19 07:31:00;;;;;;;;;;;9.30;99.90;;;;;;5115944;28;19920;-45
2022/04/19 07:33:25;;;;;;;;;;;9.40;99.90;;;;;;5116217;28;19920;-47
2022/04/19 07:35:51;;;;;;;;;;;9.30;99.90;;;;;;5115748;28;19918;-46
2022/04/19 07:38:16;;;;;;;;;;;9.40;99.90;;;;;;5115578;28;19915;-48
2022/04/19 07:40:43;;;;;;;;;;;9.80;99.90;;;;;;5115912;28;20019;-47
2022/04/19 07:43:08;;;;;;;;;;;10.00;99.80;;;;;;5115922;28;19915;-49
2022/04/19 07:45:34;;;;;;;;;;;10.00;99.60;;;;;;5116135;28;20296;-47
2022/04/19 07:48:00;;;;;;;;;;;10.00;99.40;;;;;;5116189;28;19908;-47
2022/04/19 07:50:26;;;;;;;;;;;10.00;99.70;;;;;;5116073;28;19912;-47
2022/04/19 07:52:51;;;;;;;;;;;10.30;99.90;;;;;;5115761;28;20358;-45
2022/04/19 07:55:17;;;;;;;;;;;10.50;99.60;;;;;;5097726;28;19908;-48
2022/04/19 07:57:42;;;;;;;;;;;10.50;99.50;;;;;;5115804;28;20435;-47
2022/04/19 08:00:08;;;;;;;;;;;10.60;99.40;;;;;;5115737;28;19908;-46
2022/04/19 08:02:34;;;;;;;;;;;10.60;98.80;;;;;;5115603;28;19912;-51
2022/04/19 08:04:59;;;;;;;;;;;10.60;98.80;;;;;;5115208;28;20352;-48
2022/04/19 08:07:25;;;;;;;;;;;10.70;99.30;;;;;;5115299;28;20042;-45
2022/04/19 08:09:51;;;;;;;;;;;10.90;98.70;;;;;;5115793;28;19908;-48
2022/04/19 08:12:16;;;;;;;;;;;10.80;97.60;;;;;;5115666;28;19914;-47
2022/04/19 08:14:42;;;;;;;;;;;10.80;97.90;;;;;;5115243;28;20366;-50
2022/04/19 08:17:07;;;;;;;;;;;11.00;98.20;;;;;;5115639;28;20007;-45
2022/04/19 08:19:33;;;;;;;;;;;11.20;98.00;;;;;;5115146;28;20355;-47
2022/04/19 08:21:59;;;;;;;;;;;11.30;97.20;;;;;;5115331;28;19957;-52
2022/04/19 08:24:24;;;;;;;;;;;11.60;96.90;;;;;;5115218;28;19926;-45
2022/04/19 08:26:50;;;;;;;;;;;11.80;96.60;;;;;;5115067;28;19947;-46
2022/04/19 08:29:15;;;;;;;;;;;11.90;97.00;;;;;;5115294;28;19911;-49
2022/04/19 08:31:41;;;;;;;;;;;11.80;95.90;;;;;;5115159;28;20266;-46
2022/04/19 08:34:06;;;;;;;;;;;11.50;95.80;;;;;;5096929;28;19923;-46
2022/04/19 08:36:32;;;;;;;;;;;11.30;97.00;;;;;;5115089;28;19908;-47
2022/04/19 08:38:57;;;;;;;;;;;11.40;97.10;;;;;;5096802;28;20346;-46
2022/04/19 08:41:23;;;;;;;;;;;11.60;96.50;;;;;;5114919;28;20355;-48
2022/04/19 08:43:52;;;;;;;;;;;11.80;95.80;;;;;;5115014;28;19908;-50
2022/04/19 08:46:18;;;;;;;;;;;11.80;96.50;;;;;;5115173;28;19931;-49
2022/04/19 08:48:43;;;;;;;;;;;11.70;96.40;;;;;;5114282;28;19914;-46
2022/04/19 08:51:10;;;;;;;;;;;11.80;96.30;;;;;;5096128;28;20289;-49
2022/04/19 08:59:05;;;;;;;;;;;11.90;95.90;;;;;;5114524;28;19915;-45
2022/04/19 09:01:30;;;;;;;;;;;12.00;95.60;;;;;;5096382;28;19908;-48
2022/04/19 09:03:56;;;;;;;;;;;12.20;95.80;;;;;;5114311;28;20278;-46
2022/04/19 09:06:42;;;;;;;;;;;12.50;95.60;;;;;;5114896;28;19961;-49
2022/04/19 09:09:10;;;;;;;;;;;12.30;95.40;;;;;;5114257;28;19914;-49
2022/04/19 09:11:36;;;;;;;;;;;12.30;95.30;;;;;;5114364;28;19912;-49
2022/04/19 09:14:05;;;;;;;;;;;12.50;95.50;;;;;;5096076;28;19915;-46
2022/04/19 09:16:31;;;;;;;;;;;12.60;95.00;;;;;;5114364;28;19934;-46
2022/04/19 09:18:56;;;;;;;;;;;12.90;94.80;;;;;;5113902;28;19908;-48
2022/04/19 09:21:34;;;;;;;;;;;13.00;94.50;;;;;;5114171;28;20315;-49
2022/04/19 09:23:59;;;;;;;;;;;12.90;94.20;;;;;;5114189;28;19939;-46
2022/04/19 09:26:40;;;;;;;;;;;12.90;94.20;;;;;;5114101;28;19965;-45
2022/04/19 09:29:35;;;;;;;;;;;13.00;94.00;;;;;;5095911;28;20396;-46
2022/04/19 09:32:11;;;;;;;;;;;13.10;94.10;;;;;;5104850;28;20432;-48
2022/04/19 09:34:37;;;;;;;;;;;12.90;93.60;;;;;;5113470;28;19995;-47
2022/04/19 09:37:13;;;;;;;;;;;12.90;93.90;;;;;;5113660;28;19912;-49
2022/04/19 09:39:39;;;;;;;;;;;13.10;93.90;;;;;;5095797;28;19958;-45
2022/04/19 09:42:08;;;;;;;;;;;13.30;93.50;;;;;;5113693;28;19934;-49
2022/04/19 09:44:41;;;;;;;;;;;13.30;93.40;;;;;;5113947;28;19908;-49
2022/04/19 09:47:08;;;;;;;;;;;13.40;93.50;;;;;;5113509;28;20013;-46
2022/04/19 09:49:46;;;;;;;;;;;13.40;93.40;;;;;;5113460;28;19930;-47
2022/04/19 09:52:13;;;;;;;;;;;13.50;93.10;;;;;;5113205;28;19908;-49
2022/04/19 09:54:40;;;;;;;;;;;13.50;92.80;;;;;;5095367;28;20192;-45
2022/04/19 09:57:11;;;;;;;;;;;13.70;92.80;;;;;;5113218;28;19912;-48
2022/04/19 09:59:43;;;;;;;;;;;13.70;92.80;;;;;;5113145;28;19912;-51
2022/04/19 10:10:24;;;;;;;;;;;13.80;92.30;;;;;;5117942;28;19915;-49
2022/04/19 10:12:51;;;;;;;;;;;13.70;92.40;;;;;;5117761;28;19942;-47
2022/04/19 10:15:16;;;;;;;;;;;13.60;92.50;;;;;;5117590;28;20011;-45
2022/04/19 10:17:42;;;;;;;;;;;13.80;92.40;;;;;;5099039;28;20002;-49
2022/04/19 10:20:08;;;;;;;;;;;13.90;92.00;;;;;;5117623;28;19957;-46
2022/04/19 10:22:33;;;;;;;;;;;13.90;92.40;;;;;;5117134;28;19933;-49
2022/04/19 10:25:01;;;;;;;;;;;14.20;92.20;;;;;;5117065;28;19907;-48
2022/04/19 10:27:33;;;;;;;;;;;14.00;91.70;;;;;;5117422;28;20006;-47
2022/04/19 10:30:00;;;;;;;;;;;14.00;92.00;;;;;;5117386;28;19908;-47
2022/04/19 10:32:29;;;;;;;;;;;14.40;91.80;;;;;;5117304;28;19935;-50
2022/04/19 10:35:02;;;;;;;;;;;14.70;91.70;;;;;;5116764;28;19908;-47
2022/04/19 10:37:29;;;;;;;;;;;14.50;92.10;;;;;;5117604;28;20358;-49
2022/04/19 10:39:57;;;;;;;;;;;14.40;91.90;;;;;;5116783;28;20040;-49
2022/04/19 10:42:36;;;;;;;;;;;14.80;92.30;;;;;;5116992;28;19994;-47
2022/04/19 10:45:14;;;;;;;;;;;14.20;91.80;;;;;;5116602;28;20004;-47
2022/04/19 10:47:51;;;;;;;;;;;14.50;91.50;;;;;;5117039;28;19907;-45
2022/04/19 10:50:28;;;;;;;;;;;14.20;92.50;;;;;;5116822;28;20354;-47
2022/04/19 10:52:58;;;;;;;;;;;14.20;92.10;;;;;;5116703;28;19916;-47
2022/04/19 10:55:25;;;;;;;;;;;14.30;91.50;;;;;;5116531;28;20308;-45
2022/04/19 11:00:41;;;;;;;;;;;15.00;91.20;;;;;;5116691;28;20192;-46
2022/04/19 11:03:07;;;;;;;;;;;14.80;91.30;;;;;;5116377;28;19908;-46
2022/04/19 11:05:44;;;;;;;;;;;14.40;91.70;;;;;;5116629;28;19908;-51
2022/04/19 11:08:24;;;;;;;;;;;14.20;91.90;;;;;;5116303;28;20387;-45
2022/04/19 11:10:51;;;;;;;;;;;14.50;91.50;;;;;;5116384;28;19978;-49
2022/04/19 11:13:17;;;;;;;;;;;14.80;91.60;;;;;;5115242;28;20373;-51
2022/04/19 11:15:43;;;;;;;;;;;14.80;91.00;;;;;;5116078;28;19953;-45
2022/04/19 11:18:25;;;;;;;;;;;14.60;90.70;;;;;;5116038;28;19994;-46
2022/04/19 11:20:52;;;;;;;;;;;14.20;91.00;;;;;;5116565;28;19953;-47
2022/04/19 11:23:21;;;;;;;;;;;14.00;91.50;;;;;;5116190;28;19915;-48
2022/04/19 11:25:48;;;;;;;;;;;14.30;91.30;;;;;;5116120;28;19915;-47
2022/04/19 11:28:17;;;;;;;;;;;14.20;91.50;;;;;;5116425;28;20243;-44
2022/04/19 11:30:43;;;;;;;;;;;14.10;91.20;;;;;;5115863;28;19973;-45
2022/04/19 11:33:09;;;;;;;;;;;14.00;91.60;;;;;;5115373;28;19919;-45
2022/04/19 11:35:34;;;;;;;;;;;14.40;91.30;;;;;;5116197;28;19907;-48
2022/04/19 11:38:04;;;;;;;;;;;14.50;90.70;;;;;;5116061;28;19914;-48
2022/04/19 11:48:45;;;;;;;;;;;14.80;90.30;;;;;;5115904;28;19957;-45
2022/04/19 11:51:11;;;;;;;;;;;14.50;90.60;;;;;;5115389;28;20004;-46
2022/04/19 11:53:37;;;;;;;;;;;14.90;90.50;;;;;;5115123;28;19920;-46
2022/04/19 11:56:03;;;;;;;;;;;15.10;90.00;;;;;;5115845;28;19960;-49
2022/04/19 11:58:31;;;;;;;;;;;15.40;90.00;;;;;;5097197;28;19915;-44
2022/04/19 12:01:01;;;;;;;;;;;15.20;89.10;;;;;;5114839;28;20333;-49
2022/04/19 12:03:30;;;;;;;;;;;15.30;89.50;;;;;;5115586;28;19998;-48
2022/04/19 12:06:03;;;;;;;;;;;15.30;88.80;;;;;;5114998;28;20005;-50
2022/04/19 12:08:36;;;;;;;;;;;15.20;89.80;;;;;;5097501;28;20266;-49
2022/04/19 12:11:06;;;;;;;;;;;15.40;88.20;;;;;;5115716;28;19999;-50
2022/04/19 12:13:31;;;;;;;;;;;15.40;89.50;;;;;;5096765;28;19923;-47
2022/04/19 12:15:57;;;;;;;;;;;15.40;89.00;;;;;;5114802;28;19908;-46
2022/04/19 12:18:36;;;;;;;;;;;15.30;88.10;;;;;;5096965;28;19908;-47
2022/04/19 12:21:03;;;;;;;;;;;15.50;88.20;;;;;;5115206;28;19914;-50
2022/04/19 12:23:28;;;;;;;;;;;15.30;88.10;;;;;;5114988;28;19920;-43
2022/04/19 12:25:57;;;;;;;;;;;14.90;88.10;;;;;;5114874;28;19988;-46
2022/04/19 12:28:22;;;;;;;;;;;15.00;88.70;;;;;;5114833;28;20208;-47
2022/04/19 12:30:48;;;;;;;;;;;14.90;88.70;;;;;;5115083;28;19938;-47
2022/04/19 12:33:13;;;;;;;;;;;15.50;88.50;;;;;;5114812;28;19915;-49
2022/04/19 12:35:40;;;;;;;;;;;15.50;87.60;;;;;;5115088;28;19908;-47
2022/04/19 12:38:06;;;;;;;;;;;15.40;87.70;;;;;;5096540;28;19942;-47
2022/04/19 12:40:32;;;;;;;;;;;15.50;86.80;;;;;;5114872;28;19907;-47
2022/04/19 12:42:57;;;;;;;;;;;15.40;87.20;;;;;;5114462;28;19934;-45
2022/04/19 12:45:29;;;;;;;;;;;15.40;86.70;;;;;;5115281;28;19994;-45
2022/04/19 12:47:57;;;;;;;;;;;15.30;85.90;;;;;;5114667;28;20002;-48
2022/04/19 12:50:23;;;;;;;;;;;15.60;85.00;;;;;;5114635;28;20021;-46
2022/04/19 12:52:48;;;;;;;;;;;15.50;84.90;;;;;;5114322;28;20034;-47
2022/04/19 12:55:14;;;;;;;;;;;15.40;85.20;;;;;;5096320;28;19965;-46
2022/04/19 12:57:42;;;;;;;;;;;15.40;84.50;;;;;;5114238;28;19911;-47
2022/04/19 13:00:11;;;;;;;;;;;15.00;84.00;;;;;;5114596;28;19908;-48
2022/04/19 13:02:37;;;;;;;;;;;14.90;85.20;;;;;;5114299;28;19954;-48
2022/04/19 13:05:03;;;;;;;;;;;15.00;85.10;;;;;;5114537;28;19908;-44
2022/04/19 13:13:01;;;;;;;;;;;14.70;86.90;;;;;;5114190;28;19923;-48
2022/04/19 13:15:26;;;;;;;;;;;14.50;86.20;;;;;;5114680;28;19907;-50
2022/04/19 13:17:52;;;;;;;;;;;14.70;86.70;;;;;;5114076;28;19908;-47
2022/04/19 13:20:18;;;;;;;;;;;14.60;85.90;;;;;;5114234;28;20357;-47
2022/04/19 13:22:43;;;;;;;;;;;14.70;85.90;;;;;;5114066;28;20367;-47
2022/04/19 13:25:09;;;;;;;;;;;14.80;85.70;;;;;;5113204;28;20362;-51
2022/04/19 13:27:36;;;;;;;;;;;15.10;85.60;;;;;;5113889;28;19908;-47
2022/04/19 13:30:11;;;;;;;;;;;15.10;85.30;;;;;;5113447;28;19908;-49
2022/04/19 13:32:38;;;;;;;;;;;15.20;84.90;;;;;;5113500;28;19928;-49
2022/04/19 13:35:04;;;;;;;;;;;15.10;85.40;;;;;;5112682;28;19908;-47
2022/04/19 13:40:13;;;;;;;;;;;15.30;84.00;;;;;;5113384;28;20415;-49
2022/04/19 13:42:38;;;;;;;;;;;15.60;83.70;;;;;;5113385;28;19912;-50
2022/04/19 13:45:04;;;;;;;;;;;15.70;83.40;;;;;;5112790;28;19947;-50
2022/04/19 13:47:30;;;;;;;;;;;15.70;82.40;;;;;;5113431;28;19961;-47
2022/04/19 13:49:56;;;;;;;;;;;15.50;81.60;;;;;;5113814;28;19912;-49
2022/04/19 13:52:21;;;;;;;;;;;15.70;82.20;;;;;;5095485;28;19907;-47
2022/04/19 13:54:47;;;;;;;;;;;15.80;82.00;;;;;;5113516;28;20411;-48
2022/04/19 13:57:12;;;;;;;;;;;15.70;82.40;;;;;;5113689;28;19915;-47
2022/04/19 13:59:38;;;;;;;;;;;15.20;82.90;;;;;;5095749;28;19907;-46
2022/04/19 14:02:04;;;;;;;;;;;14.90;84.50;;;;;;5095203;28;19951;-45
2022/04/19 14:04:29;;;;;;;;;;;15.40;83.40;;;;;;5094546;28;19908;-48
2022/04/19 14:06:55;;;;;;;;;;;15.40;82.60;;;;;;5113209;28;19907;-49
2022/04/19 14:09:20;;;;;;;;;;;15.50;83.00;;;;;;5113341;28;19919;-51
2022/04/19 14:11:46;;;;;;;;;;;15.40;81.50;;;;;;5113443;28;19912;-47
2022/04/19 14:14:11;;;;;;;;;;;15.30;82.50;;;;;;5113353;28;19916;-44
2022/04/19 14:16:37;;;;;;;;;;;15.30;82.20;;;;;;5112908;28;19984;-49
2022/04/19 14:19:04;;;;;;;;;;;15.40;81.40;;;;;;5113009;28;19908;-47
2022/04/19 14:21:29;;;;;;;;;;;15.60;81.50;;;;;;5113188;28;20010;-48
2022/04/19 14:23:55;;;;;;;;;;;15.60;80.80;;;;;;5113180;28;20003;-44
2022/04/19 14:26:20;;;;;;;;;;;15.60;79.50;;;;;;5112873;28;19920;-48
2022/04/19 14:34:14;;;;;;;;;;;15.80;79.60;;;;;;5113082;28;19922;-47
2022/04/19 14:36:40;;;;;;;;;;;15.70;79.70;;;;;;5112928;28;19908;-50
2022/04/19 14:39:06;;;;;;;;;;;15.70;79.80;;;;;;5112933;28;20258;-45
2022/04/19 14:41:31;;;;;;;;;;;15.60;80.40;;;;;;5112816;28;19908;-48
2022/04/19 14:43:57;;;;;;;;;;;15.70;79.80;;;;;;5113171;28;19915;-46
2022/04/19 14:46:22;;;;;;;;;;;15.60;79.80;;;;;;5095231;28;19908;-51
2022/04/19 14:48:48;;;;;;;;;;;16.10;79.10;;;;;;5116473;28;19908;-47
2022/04/19 14:53:58;;;;;;;;;;;15.90;78.10;;;;;;5116428;28;20424;-44
2022/04/19 14:56:23;;;;;;;;;;;15.80;78.40;;;;;;5116615;28;19912;-50
2022/04/19 14:58:49;;;;;;;;;;;15.90;78.80;;;;;;5116195;28;19908;-49
2022/04/19 15:01:16;;;;;;;;;;;15.50;78.70;;;;;;5116987;28;19908;-48
2022/04/19 15:03:42;;;;;;;;;;;15.20;79.90;;;;;;5116095;28;19912;-51
2022/04/19 15:06:07;;;;;;;;;;;15.20;81.00;;;;;;5098435;28;19908;-47
2022/04/19 15:08:33;;;;;;;;;;;15.20;81.40;;;;;;5116682;28;19908;-51
2022/04/19 15:10:59;;;;;;;;;;;15.20;81.90;;;;;;5116239;28;20353;-45
2022/04/19 15:13:24;;;;;;;;;;;15.20;82.10;;;;;;5116251;28;20105;-46
2022/04/19 15:15:50;;;;;;;;;;;15.30;82.20;;;;;;5116157;28;19943;-47
2022/04/19 15:18:15;;;;;;;;;;;15.30;81.40;;;;;;5116121;28;20326;-49
2022/04/19 15:20:41;;;;;;;;;;;15.30;82.50;;;;;;5116241;28;19908;-50
2022/04/19 15:23:07;;;;;;;;;;;15.20;82.50;;;;;;5115548;28;20278;-49
2022/04/19 15:25:32;;;;;;;;;;;15.00;82.90;;;;;;5115799;28;19907;-47
2022/04/19 15:27:58;;;;;;;;;;;15.10;82.70;;;;;;5115657;28;19907;-48